createdAt,value
2019-02-17T00:02:01.420Z,8.80
2019-02-17T00:04:30.637Z,8.80
2019-02-17T00:06:59.606Z,8.80
2019-02-17T00:11:57.190Z,8.70
2019-02-17T00:14:26.230Z,8.70
2019-02-17T00:16:57.027Z,8.70
2019-02-17T00:19:25.876Z,8.70
2019-02-17T00:24:23.325Z,8.50
2019-02-17T00:26:52.310Z,8.40
2019-02-17T00:29:21.335Z,8.40
2019-02-17T00:31:50.569Z,8.50
2019-02-17T00:34:19.423Z,8.50
2019-02-17T00:39:16.961Z,8.50
2019-02-17T00:41:45.991Z,8.50
2019-02-17T00:44:15.133Z,8.60
2019-02-17T00:49:12.627Z,8.60
2019-02-17T00:51:43.717Z,8.70
2019-02-17T00:54:12.216Z,8.70
2019-02-17T00:56:41.195Z,8.70
2019-02-17T00:59:10.666Z,8.80
2019-02-17T01:01:39.550Z,8.80
2019-02-17T01:04:08.485Z,8.70
2019-02-17T01:06:37.649Z,8.70
2019-02-17T01:09:06.949Z,8.70
2019-02-17T01:14:04.700Z,8.70
2019-02-17T01:16:33.592Z,8.70
2019-02-17T01:19:02.953Z,8.70
2019-02-17T01:21:32.030Z,8.70
2019-02-17T01:26:29.688Z,8.60
2019-02-17T01:28:58.632Z,8.50
2019-02-17T01:31:27.561Z,8.40
2019-02-17T01:33:56.513Z,8.30
2019-02-17T01:36:25.395Z,8.20
2019-02-17T01:41:23.024Z,8.00
2019-02-17T01:43:51.897Z,7.90
2019-02-17T01:46:21.384Z,7.80
2019-02-17T01:48:50.263Z,7.80
2019-02-17T01:51:19.133Z,7.80
2019-02-17T01:53:48.485Z,7.90
2019-02-17T01:56:17.422Z,7.80
2019-02-17T01:58:46.538Z,7.70
2019-02-17T02:01:17.086Z,7.70
2019-02-17T02:11:11.646Z,7.60
2019-02-17T02:13:40.550Z,7.60
2019-02-17T02:18:38.169Z,7.90
2019-02-17T02:21:07.086Z,7.90
2019-02-17T02:23:36.073Z,7.90
2019-02-17T02:26:04.942Z,8.00
2019-02-17T02:28:33.809Z,8.00
2019-02-17T02:31:02.766Z,8.10
2019-02-17T02:33:31.734Z,8.00
2019-02-17T02:36:00.751Z,8.00
2019-02-17T02:40:58.102Z,8.00
2019-02-17T02:45:55.738Z,8.00
2019-02-17T02:50:53.459Z,8.00
2019-02-17T02:53:22.440Z,8.00
2019-02-17T02:55:51.316Z,7.90
2019-02-17T03:00:49.045Z,8.00
2019-02-17T03:03:18.048Z,8.00
2019-02-17T03:05:48.630Z,8.00
2019-02-17T03:08:17.432Z,8.00
2019-02-17T03:13:14.796Z,8.00
2019-02-17T03:20:59.928Z,8.10
2019-02-17T03:23:28.808Z,8.10
2019-02-17T03:25:57.669Z,8.10
2019-02-17T03:28:26.554Z,8.00
2019-02-17T03:30:55.484Z,8.00
2019-02-17T03:33:24.402Z,8.00
2019-02-17T03:40:50.399Z,7.80
2019-02-17T03:43:19.284Z,7.70
2019-02-17T03:45:48.153Z,7.70
2019-02-17T03:48:18.900Z,7.60
2019-02-17T03:53:16.453Z,7.60
2019-02-17T04:00:42.880Z,7.50
2019-02-17T04:03:12.149Z,7.60
2019-02-17T04:05:41.954Z,7.60
2019-02-17T04:08:11.068Z,7.70
2019-02-17T04:13:08.581Z,7.90
2019-02-17T04:18:06.066Z,7.90
2019-02-17T04:20:34.965Z,7.90
2019-02-17T04:25:32.412Z,7.90
2019-02-17T04:35:27.508Z,7.90
2019-02-17T04:37:56.469Z,7.90
2019-02-17T04:40:25.340Z,7.90
2019-02-17T04:42:54.260Z,7.90
2019-02-17T04:45:23.311Z,7.80
2019-02-17T04:47:52.313Z,7.80
2019-02-17T04:57:46.882Z,7.80
2019-02-17T05:00:19.050Z,7.80
2019-02-17T05:02:48.012Z,7.80
2019-02-17T05:10:13.940Z,7.90
2019-02-17T05:12:42.796Z,7.90
2019-02-17T05:15:11.784Z,7.90
2019-02-17T05:17:40.673Z,7.90
2019-02-17T05:20:09.983Z,7.90
2019-02-17T05:22:39.554Z,7.80
2019-02-17T05:25:08.712Z,7.70
2019-02-17T05:27:37.551Z,7.70
2019-02-17T05:32:36.376Z,7.60
2019-02-17T05:35:06.071Z,7.60
2019-02-17T05:45:01.084Z,7.60
2019-02-17T05:49:58.454Z,2.90
2019-02-17T05:54:56.036Z,7.50
2019-02-17T05:57:25.062Z,7.50
2019-02-17T06:04:51.134Z,7.50
2019-02-17T06:07:20.075Z,7.40
2019-02-17T06:09:48.920Z,7.50
2019-02-17T06:12:18.708Z,7.40
2019-02-17T06:14:47.745Z,7.40
2019-02-17T06:22:13.637Z,7.30
2019-02-17T06:27:11.049Z,7.60
2019-02-17T06:29:39.950Z,7.60
2019-02-17T06:32:08.836Z,7.70
2019-02-17T06:34:37.832Z,7.70
2019-02-17T06:51:59.105Z,7.50
2019-02-17T06:54:28.126Z,7.50
2019-02-17T06:56:59.182Z,7.40
2019-02-17T07:01:56.576Z,7.40
2019-02-17T07:06:57.846Z,7.40
2019-02-17T07:14:26.088Z,7.60
2019-02-17T07:16:55.469Z,7.70
2019-02-17T07:19:24.427Z,7.70
2019-02-17T07:31:47.752Z,7.90
2019-02-17T07:34:16.548Z,7.90
2019-02-17T07:36:45.429Z,8.00
2019-02-17T07:39:14.298Z,8.00
2019-02-17T07:41:43.258Z,8.00
2019-02-17T07:44:19.893Z,8.10
2019-02-17T07:46:48.721Z,8.20
2019-02-17T07:49:17.578Z,8.30
2019-02-17T07:59:12.297Z,8.60
2019-02-17T08:04:11.348Z,8.80
2019-02-17T08:19:03.374Z,9.10
2019-02-17T08:21:32.245Z,9.10
2019-02-17T08:24:01.028Z,9.20
2019-02-17T08:26:29.912Z,9.30
2019-02-17T08:31:27.598Z,9.60
2019-02-17T08:38:53.739Z,9.80
2019-02-17T08:43:52.302Z,10.10
2019-02-17T08:46:21.290Z,10.20
2019-02-17T08:48:50.257Z,10.30
2019-02-17T08:51:19.198Z,10.40
2019-02-17T08:58:47.148Z,10.50
2019-02-17T09:01:16.012Z,10.50
2019-02-17T09:03:44.951Z,10.60
2019-02-17T09:06:13.896Z,10.60
2019-02-17T09:23:59.810Z,11.20
2019-02-17T09:26:29.828Z,11.20
2019-02-17T09:31:27.482Z,11.50
2019-02-17T09:33:56.294Z,11.40
2019-02-17T09:36:25.086Z,8.40
2019-02-17T09:38:54.046Z,11.60
2019-02-17T09:41:23.104Z,15.30
2019-02-17T09:43:52.036Z,11.90
2019-02-17T09:51:18.105Z,12.20
2019-02-17T09:56:15.525Z,12.50
2019-02-17T09:58:44.432Z,12.60
2019-02-17T10:03:42.117Z,12.80
2019-02-17T10:11:08.110Z,13.10
2019-02-17T10:16:05.811Z,13.20
2019-02-17T10:18:34.716Z,13.30
2019-02-17T10:21:04.265Z,13.40
2019-02-17T10:23:33.333Z,16.10
2019-02-17T10:28:30.847Z,13.80
2019-02-17T10:30:59.937Z,13.90
2019-02-17T10:33:28.564Z,14.00
2019-02-17T10:35:57.539Z,14.10
2019-02-17T10:40:54.551Z,14.40
2019-02-17T10:43:23.197Z,14.60
2019-02-17T10:45:57.673Z,14.80
2019-02-17T10:48:26.295Z,15.00
2019-02-17T10:50:54.985Z,15.30
2019-02-17T10:53:23.696Z,14.80
2019-02-17T10:55:52.382Z,15.70
2019-02-17T11:05:45.930Z,16.60
2019-02-17T11:10:42.734Z,16.90
2019-02-17T11:13:11.326Z,21.30
2019-02-17T11:15:40.161Z,17.20
2019-02-17T11:18:08.835Z,17.50
2019-02-17T11:20:37.418Z,17.70
2019-02-17T11:23:06.090Z,17.80
2019-02-17T11:28:03.121Z,18.30
2019-02-17T11:30:31.706Z,15.30
2019-02-17T11:33:00.322Z,18.70
2019-02-17T11:35:29.872Z,21.60
2019-02-17T11:37:58.757Z,19.10
2019-02-17T11:40:27.504Z,19.30
2019-02-17T11:45:24.625Z,19.80
2019-02-17T11:52:49.797Z,16.40
2019-02-17T11:55:18.486Z,17.60
2019-02-17T11:57:47.107Z,20.60
2019-02-17T12:00:19.407Z,19.80
2019-02-17T12:02:48.061Z,21.40
2019-02-17T12:10:13.303Z,23.10
2019-02-17T12:12:41.976Z,23.70
2019-02-17T12:15:12.827Z,24.10
2019-02-17T12:17:41.633Z,24.50
2019-02-17T12:20:36.924Z,26.10
2019-02-17T12:26:08.946Z,26.30
2019-02-17T12:28:39.233Z,28.30
2019-02-17T12:31:08.304Z,28.80
2019-02-17T12:33:37.933Z,29.40
2019-02-17T12:36:06.521Z,29.90
2019-02-17T12:38:35.211Z,30.50
2019-02-17T12:41:03.933Z,31.00
2019-02-17T12:43:32.519Z,31.40
2019-02-17T12:46:01.161Z,32.00
2019-02-17T12:48:30.047Z,32.50
2019-02-17T12:51:00.234Z,33.10
2019-02-17T12:53:29.216Z,28.60
2019-02-17T12:55:57.895Z,34.70
2019-02-17T12:58:29.883Z,34.80
2019-02-17T13:00:56.773Z,35.40
2019-02-17T13:03:28.576Z,35.50
2019-02-17T13:05:55.755Z,35.40
2019-02-17T13:08:24.667Z,35.60
2019-02-17T13:10:53.355Z,36.00
2019-02-17T13:13:21.978Z,36.70
2019-02-17T13:15:50.941Z,36.90
2019-02-17T13:18:19.461Z,38.30
2019-02-17T13:20:48.045Z,38.70
2019-02-17T13:23:16.706Z,39.20
2019-02-17T13:25:45.290Z,40.20
2019-02-17T13:28:13.892Z,40.40
2019-02-17T13:30:42.577Z,40.70
2019-02-17T13:33:11.294Z,41.40
2019-02-17T13:35:39.893Z,42.00
2019-02-17T13:38:09.223Z,42.20
2019-02-17T13:40:37.986Z,42.20
2019-02-17T13:45:35.008Z,42.00
2019-02-17T13:48:03.766Z,41.40
2019-02-17T13:50:32.364Z,41.00
2019-02-17T13:53:11.089Z,40.60
2019-02-17T13:55:31.528Z,35.60
2019-02-17T13:58:00.322Z,39.30
2019-02-17T14:00:29.030Z,38.10
2019-02-17T14:02:58.558Z,37.60
2019-02-17T14:05:28.827Z,37.20
2019-02-17T14:07:57.434Z,37.00
2019-02-17T14:10:26.022Z,36.90
2019-02-17T14:12:54.640Z,36.70
2019-02-17T14:15:23.460Z,35.80
2019-02-17T14:17:52.193Z,34.50
2019-02-17T14:20:20.823Z,33.30
2019-02-17T14:22:49.778Z,32.10
2019-02-17T14:25:18.444Z,30.90
2019-02-17T14:52:40.247Z,23.90
2019-02-17T14:55:10.400Z,23.60
2019-02-17T14:57:38.933Z,23.30
2019-02-17T15:00:17.326Z,22.90
2019-02-17T15:02:46.015Z,22.70
2019-02-17T15:05:14.686Z,22.50
2019-02-17T15:07:43.278Z,22.20
2019-02-17T15:10:13.314Z,22.00
2019-02-17T15:15:14.700Z,21.70
2019-02-17T15:17:43.416Z,21.60
2019-02-17T15:20:17.606Z,21.50
2019-02-17T15:25:14.544Z,21.20
2019-02-17T15:27:43.141Z,21.10
2019-02-17T15:30:17.807Z,20.90
2019-02-17T15:50:10.183Z,20.00
2019-02-17T16:54:34.788Z,15.30
2019-02-17T16:59:31.798Z,15.00
2019-02-17T17:04:29.118Z,14.80
2019-02-17T17:06:58.244Z,14.70
2019-02-17T17:29:14.055Z,16.90
2019-02-17T17:31:42.675Z,17.20
2019-02-17T17:46:35.070Z,16.30
2019-02-17T17:51:35.626Z,15.70
2019-02-17T17:59:02.987Z,15.10
2019-02-17T18:06:28.948Z,14.70
2019-02-17T18:21:20.833Z,14.30
2019-02-17T18:23:49.801Z,14.50
2019-02-17T18:26:18.683Z,14.80
2019-02-17T18:28:47.701Z,14.70
2019-02-17T18:31:16.704Z,14.60
2019-02-17T18:33:49.620Z,14.40
2019-02-17T18:36:18.476Z,14.30
2019-02-17T18:38:47.387Z,14.10
2019-02-17T18:41:16.317Z,14.00
2019-02-17T18:43:45.822Z,13.90
2019-02-17T18:51:11.919Z,13.50
2019-02-17T18:53:40.902Z,13.50
2019-02-17T18:56:09.782Z,13.40
2019-02-17T18:58:38.707Z,13.30
2019-02-17T19:01:07.625Z,13.20
2019-02-17T19:03:36.518Z,13.20
2019-02-17T19:06:05.598Z,13.10
2019-02-17T19:11:03.084Z,13.00
2019-02-17T19:13:31.902Z,12.90
2019-02-17T19:16:00.799Z,12.90
2019-02-17T19:18:29.684Z,12.80
2019-02-17T19:20:58.613Z,12.70
2019-02-17T19:23:27.644Z,12.70
2019-02-17T19:35:50.957Z,15.30
2019-02-17T19:38:19.542Z,15.50
2019-02-17T19:55:39.267Z,13.40
2019-02-17T20:03:09.723Z,12.90
2019-02-17T20:33:18.194Z,11.90
2019-02-17T20:53:11.426Z,11.30
2019-02-17T20:58:09.652Z,11.20
2019-02-17T21:05:37.003Z,11.10
2019-02-17T21:08:06.438Z,11.20
2019-02-17T21:15:33.454Z,11.10
2019-02-17T21:22:59.830Z,11.10
2019-02-17T21:25:28.722Z,11.10
2019-02-17T21:30:26.143Z,11.10
2019-02-17T21:35:23.734Z,11.00
2019-02-17T21:47:47.595Z,11.20
2019-02-17T21:50:16.495Z,11.30
2019-02-17T22:07:40.485Z,11.60
2019-02-17T22:42:41.950Z,12.00
2019-02-17T22:45:11.840Z,11.90
2019-02-17T22:47:40.879Z,11.90
2019-02-17T22:55:09.980Z,11.70
2019-02-17T22:57:38.878Z,11.70
2019-02-17T23:00:33.205Z,11.70
2019-02-17T23:07:59.261Z,11.60
2019-02-17T23:17:54.075Z,11.20
2019-02-17T23:27:48.957Z,13.50
2019-02-17T23:32:46.746Z,13.90
2019-02-17T23:37:44.581Z,13.20
2019-02-17T23:40:16.202Z,12.80
2019-02-17T23:42:45.072Z,12.50
2019-02-17T23:45:14.675Z,12.30
2019-02-17T23:50:13.417Z,11.90
2019-02-17T23:55:11.921Z,11.60
2019-02-17T23:57:40.940Z,11.50
